Weather reports worldwide

Advertisment
La Seo D'Urgell, Spain (8115): temperature & dewpoint: 17.05.2019 14:00:00 - 23.05.2019 14:00:00 (CEST)La Seo D'Urgell, Spain (8115): wind speed & gusts: 17.05.2019 14:00:00 - 23.05.2019 14:00:00 (CEST)La Seo D'Urgell, Spain (8115): wind direction: 17.05.2019 14:00:00 - 23.05.2019 14:00:00 (CEST)La Seo D'Urgell, Spain (8115): precipitation: 17.05.2019 14:00:00 - 23.05.2019 14:00:00 (CEST)
Date & Time tt [°C] td [°C] ff [km/h] ff [kn] fx [km/h] fx [kn] dd rr [mm]
23.05.2019 14:00:00 - - - - - - - -
23.05.2019 13:00:00 22,9 5,4 3 2 10 5 ENE 0,0
23.05.2019 12:00:00 21,6 6,7 4 2 9 5 SSW 0,0
23.05.2019 11:00:00 18,4 4,6 1 1 6 4 E 0,0
23.05.2019 10:00:00 15,9 6,1 2 1 5 3 S 0,0
23.05.2019 09:00:00 12,1 6,8 2 1 5 3 S 0,0
23.05.2019 08:00:00 7,3 6,1 1 1 7 4 ESE -
23.05.2019 07:00:00 5,3 4,1 1 0 4 2 S 0,0
23.05.2019 06:00:00 5,7 4,4 0 0 4 2 S 0,0
23.05.2019 05:00:00 6,2 4,5 0 0 5 3 NE 0,0
23.05.2019 04:00:00 7,2 5,2 0 0 5 3 NE 0,0
23.05.2019 03:00:00 7,8 5,1 1 1 4 2 N 0,0
23.05.2019 02:00:00 8,7 5,3 0 0 7 4 SSW -
23.05.2019 01:00:00 9,8 5,2 1 0 5 3 SSE 0,0
23.05.2019 00:00:00 11,3 5,2 1 1 4 2 NE 0,0
22.05.2019 23:00:00 12,4 4,4 1 0 5 3 W 0,0
22.05.2019 22:00:00 14,5 3,9 1 0 6 3 S 0,0
22.05.2019 21:00:00 18,8 0,9 3 2 7 4 WNW 0,0
22.05.2019 20:00:00 20,4 2,3 2 1 12 6 NW -
22.05.2019 19:00:00 20,8 2,2 4 2 15 8 WSW 0,0
22.05.2019 18:00:00 21,5 2,3 7 4 22 12 W 0,0
22.05.2019 17:00:00 23,0 4,5 5 3 21 12 S 0,0
22.05.2019 16:00:00 23,2 3,7 6 4 19 10 WSW 0,0
22.05.2019 15:00:00 22,9 4,0 5 3 18 10 WSW 0,0
22.05.2019 14:00:00 22,1 3,3 4 2 16 8 SW -
22.05.2019 13:00:00 21,3 4,4 4 2 13 7 SW 0,0
22.05.2019 12:00:00 19,6 4,5 4 2 9 5 SSW 0,0
22.05.2019 11:00:00 17,6 6,2 3 2 11 6 SW 0,0
22.05.2019 10:00:00 14,7 6,5 3 2 9 5 SSW 0,0
22.05.2019 09:00:00 11,5 7,2 3 1 5 3 SSW 0,0
22.05.2019 08:00:00 7,3 6,4 0 0 4 2 N -
22.05.2019 07:00:00 5,2 4,3 2 1 4 2 N 0,0
22.05.2019 06:00:00 5,9 4,9 0 0 4 2 SSW 0,0
22.05.2019 05:00:00 6,5 5,3 0 0 4 2 SSE 0,0
22.05.2019 04:00:00 7,1 5,7 0 0 5 3 NW 0,0
22.05.2019 03:00:00 7,8 6,1 1 1 5 3 NNE 0,0
22.05.2019 02:00:00 8,5 6,3 1 0 6 3 WSW -
22.05.2019 01:00:00 9,6 6,3 2 1 5 3 SW 0,0
22.05.2019 00:00:00 11,0 6,0 4 2 9 5 WSW 0,0
21.05.2019 23:00:00 13,5 6,1 2 1 18 10 ENE 0,0
21.05.2019 22:00:00 14,7 6,0 9 5 24 13 ENE 0,0
21.05.2019 21:00:00 15,3 5,0 6 4 19 11 E 0,0
21.05.2019 20:00:00 16,8 3,8 10 5 21 11 ENE -
21.05.2019 19:00:00 18,5 2,8 9 5 24 13 N 0,0
21.05.2019 18:00:00 19,7 3,0 5 3 17 9 WSW 0,0
21.05.2019 17:00:00 20,2 1,6 8 5 19 10 WSW 0,0
21.05.2019 16:00:00 23,1 2,6 6 3 17 9 SW 0,0
21.05.2019 15:00:00 21,5 1,8 3 2 12 6 SW 0,0
21.05.2019 14:00:00 20,6 3,8 4 2 10 5 NNE -
21.05.2019 13:00:00 18,3 5,5 2 1 8 4 NNE 0,0
21.05.2019 12:00:00 16,1 6,5 4 2 9 5 SSW 0,0
21.05.2019 11:00:00 14,2 6,3 3 1 12 6 SSW 0,0
21.05.2019 10:00:00 13,2 6,3 4 2 10 5 NE 0,0
21.05.2019 09:00:00 10,4 9,5 1 1 4 2 SE 0,0
21.05.2019 08:00:00 6,9 6,3 1 1 6 3 ENE -
21.05.2019 07:00:00 6,6 5,9 2 1 11 6 ENE 0,0
21.05.2019 06:00:00 6,7 6,0 0 0 4 2 NW 0,0
21.05.2019 05:00:00 7,0 6,3 1 1 4 2 S 0,0
21.05.2019 04:00:00 8,1 7,2 1 1 3 2 SE 0,0
21.05.2019 03:00:00 8,3 7,4 0 0 3 2 S 0,0
21.05.2019 02:00:00 9,2 8,1 0 0 5 3 ENE -
21.05.2019 01:00:00 10,3 8,9 3 1 5 3 WSW 0,0
21.05.2019 00:00:00 10,7 9,3 1 1 5 3 E 0,0
20.05.2019 23:00:00 10,9 9,0 1 0 10 6 W 0,0
20.05.2019 22:00:00 11,1 8,7 4 2 12 6 NE 0,9
20.05.2019 21:00:00 12,0 7,9 1 1 12 7 NE 0,3
20.05.2019 20:00:00 12,6 7,5 5 3 15 8 NE -
20.05.2019 19:00:00 12,7 8,4 4 2 18 10 SW 1,6
20.05.2019 18:00:00 15,6 5,2 4 2 26 14 W 0,1
20.05.2019 17:00:00 18,7 3,7 10 5 32 17 WSW 0,0
20.05.2019 16:00:00 19,8 2,7 10 6 24 13 WSW 0,0
20.05.2019 15:00:00 20,0 1,5 8 5 20 11 SW 0,0
20.05.2019 14:00:00 20,4 0,3 4 2 12 6 SW -
20.05.2019 13:00:00 19,1 0,7 4 2 13 7 WSW 0,0
20.05.2019 12:00:00 18,0 1,1 4 2 10 5 SW 0,0
20.05.2019 11:00:00 16,9 2,5 0 0 9 5 E 0,0
20.05.2019 10:00:00 14,7 3,8 2 1 9 5 ESE 0,0
20.05.2019 09:00:00 11,4 5,1 0 0 4 2 S 0,0
20.05.2019 08:00:00 6,2 4,7 2 1 5 3 SSW -
20.05.2019 07:00:00 4,6 3,1 1 1 4 2 W 0,0
20.05.2019 06:00:00 5,0 3,5 0 0 5 3 WNW 0,0
20.05.2019 05:00:00 5,4 3,6 2 1 5 3 ENE 0,0
20.05.2019 04:00:00 6,2 3,9 1 0 6 3 NW 0,0
20.05.2019 03:00:00 7,3 3,7 3 2 7 4 NNE 0,0
20.05.2019 02:00:00 8,2 4,8 0 0 8 4 ESE -
20.05.2019 01:00:00 8,9 5,1 4 2 8 4 WSW 0,0
20.05.2019 00:00:00 11,1 2,2 2 1 10 5 SW 0,0
19.05.2019 23:00:00 12,4 0,5 3 1 13 7 SSW 0,0
19.05.2019 22:00:00 13,3 0,0 6 3 17 9 WSW 0,0
19.05.2019 21:00:00 14,2 -0,6 4 2 19 11 WNW 0,0
19.05.2019 20:00:00 15,0 -0,7 6 3 17 9 NNW -
19.05.2019 19:00:00 16,4 -0,3 4 2 18 10 N 0,0
19.05.2019 18:00:00 16,9 -0,3 6 4 28 15 N 0,0
19.05.2019 17:00:00 17,4 0,6 3 2 13 7 NNE 0,0
19.05.2019 16:00:00 16,8 -0,8 6 4 23 12 WSW 0,0
19.05.2019 15:00:00 17,5 -0,7 4 2 23 12 W 0,0
19.05.2019 14:00:00 17,9 1,4 2 1 18 10 SSE -
19.05.2019 13:00:00 16,4 0,9 5 3 14 8 SSW 0,0
19.05.2019 12:00:00 16,2 2,3 2 1 8 4 SSW 0,0
19.05.2019 11:00:00 13,0 3,1 3 2 8 5 W 0,0
19.05.2019 10:00:00 10,6 4,3 4 2 8 4 SSW 0,0
19.05.2019 09:00:00 8,2 6,0 3 2 8 5 SW 0,0
19.05.2019 08:00:00 3,8 3,1 2 1 6 3 SSW -
19.05.2019 07:00:00 3,7 2,8 0 0 6 3 S 0,0
19.05.2019 06:00:00 3,9 3,0 3 1 5 3 S 0,0
19.05.2019 05:00:00 3,9 3,0 0 0 4 2 S 0,0
19.05.2019 04:00:00 4,4 3,2 0 0 7 4 WSW 0,0
19.05.2019 03:00:00 5,0 3,7 1 0 4 2 SW 0,0
19.05.2019 02:00:00 5,8 4,1 0 0 6 3 S -
19.05.2019 01:00:00 7,0 4,8 2 1 7 4 S 0,0
19.05.2019 00:00:00 7,8 4,9 1 1 5 3 NNE 0,0
18.05.2019 23:00:00 8,3 4,9 2 1 8 5 SSW 0,0
18.05.2019 22:00:00 8,6 3,3 4 2 16 9 NNE 0,0
18.05.2019 21:00:00 8,8 3,2 6 4 20 11 ENE 0,0
18.05.2019 20:00:00 9,8 4,4 7 4 22 12 ENE -
18.05.2019 19:00:00 9,7 3,9 8 4 25 14 N 0,4
18.05.2019 18:00:00 11,1 2,4 11 6 32 18 N 0,0
18.05.2019 17:00:00 11,9 2,9 12 6 35 19 N 0,0
18.05.2019 16:00:00 12,8 2,9 14 7 37 20 N 0,0
18.05.2019 15:00:00 15,9 2,0 9 5 24 13 SW 0,0
18.05.2019 14:00:00 16,0 2,4 7 4 20 11 WSW -
18.05.2019 13:00:00 15,1 2,3 6 3 19 10 W 0,0
18.05.2019 12:00:00 15,0 3,2 4 2 14 8 WSW 0,0
18.05.2019 11:00:00 14,0 4,6 3 2 13 7 WSW 0,0
18.05.2019 10:00:00 12,3 5,9 5 3 11 6 SW 0,0
18.05.2019 09:00:00 10,2 6,0 2 1 6 3 SSW 0,0
18.05.2019 08:00:00 8,3 6,8 0 0 4 2 SW -
18.05.2019 07:00:00 7,6 6,1 1 0 3 2 N 0,0
18.05.2019 06:00:00 7,4 5,7 1 1 4 2 WSW 0,0
18.05.2019 05:00:00 7,6 5,7 2 1 4 2 SW 0,0
18.05.2019 04:00:00 8,2 6,0 1 1 5 3 S 0,0
18.05.2019 03:00:00 8,8 6,4 0 0 5 3 WSW 0,0
18.05.2019 02:00:00 9,0 6,3 1 1 4 2 SSW -
18.05.2019 01:00:00 9,4 6,0 1 0 4 2 WSW 0,0
18.05.2019 00:00:00 10,0 6,0 1 0 5 3 NNW 0,0
17.05.2019 23:00:00 10,9 5,7 1 1 7 4 NE 0,0
17.05.2019 22:00:00 11,2 7,3 1 1 10 6 SE 0,0
17.05.2019 21:00:00 12,0 7,7 4 2 12 6 W 0,0
17.05.2019 20:00:00 12,6 7,5 2 1 11 6 WNW -
17.05.2019 19:00:00 13,8 8,2 1 1 10 5 W 0,0
17.05.2019 18:00:00 13,4 8,7 2 1 8 5 WSW 0,0
17.05.2019 17:00:00 13,1 9,0 1 1 8 5 NNW 0,7
17.05.2019 16:00:00 13,0 8,5 3 2 9 5 NNE 1,1
17.05.2019 15:00:00 13,8 5,4 2 1 11 6 NW 0,4
17.05.2019 14:00:00 15,3 5,0 4 2 14 8 S -

tt = temperature
td = dewpoint
ff = wind speed
fx = gusts
dd = wind direction
rr = precipitation

Next stations